»·PEaware :: N292MC KYKM-S31

N292MC :: KYKM-S31

FLIGHT INFORMATION

Flight Status: Arrived
Operator: Privately registered:
United States
More flights under this callsign
Pilot: Maurice C. (12314)
Aircraft: Unknown
(KODI)
More flights by this aircraft type
Origin: KYKM Yakima Air Term/Mcallister
United States
Destination: S31 Lopez Island
United States
More flights between these airports :: More routes between these airports
Route: ELN PAE
File this flight plan on PilotEdge
Remarks: ALPHABET CHALLENGE
Altitude:
(Current/Filed)
8,500ft
Speed:
(Current/Filed)
180kts
Departed: 12-May-20 12:57 PM
Arrived: 12-May-20 02:03 PM
Distance/Time
Traveled:
150nm/1:06
Distance/Time
To Go:
Arrived

Flight Plot

Page will automatically refresh every two minutes.


Map Options




Map Legend


Flown Route
Filed Route
Departure Airport
Arrival Airport
Navaid (VOR, NDB)
Fix

Horizontal Profiles

Position Reports

Time Latitude Longitude Heading Altitude Ground
Speed
12-May-20 12:32 46.569686 -120.537988 269 1065ft 0kts
12-May-20 12:33 46.569686 -120.537988 269 1065ft 0kts
12-May-20 12:34 46.569686 -120.537988 269 1065ft 0kts
12-May-20 12:35 46.569686 -120.537988 269 1065ft 0kts
12-May-20 12:36 46.569686 -120.537988 269 1065ft 0kts
12-May-20 12:37 46.569686 -120.537988 269 1065ft 0kts
12-May-20 12:38 46.569686 -120.537988 269 1065ft 0kts
12-May-20 12:39 46.569686 -120.537988 269 1065ft 0kts
12-May-20 12:40 46.569686 -120.537988 269 1065ft 0kts
12-May-20 12:41 46.569686 -120.537988 269 1065ft 0kts
12-May-20 12:42 46.569686 -120.537988 269 1065ft 0kts
12-May-20 12:43 46.569686 -120.537988 269 1065ft 0kts
12-May-20 12:44 46.569686 -120.537988 269 1065ft 0kts
12-May-20 12:45 46.569686 -120.537988 269 1065ft 0kts
12-May-20 12:46 46.569686 -120.537988 269 1065ft 0kts
12-May-20 12:47 46.569686 -120.537988 269 1065ft 0kts
12-May-20 12:49 46.569686 -120.537988 269 1065ft 0kts
12-May-20 12:50 46.569686 -120.537988 269 1065ft 0kts
12-May-20 12:51 46.569686 -120.537988 269 1065ft 0kts
12-May-20 12:52 46.569686 -120.537988 269 1065ft 0kts
12-May-20 12:53 46.569076 -120.538319 169 1065ft 11kts
12-May-20 12:54 46.567257 -120.533764 108 1057ft 14kts
12-May-20 12:55 46.566461 -120.531471 166 1053ft 0kts
12-May-20 12:56 46.566308 -120.531410 161 1053ft 12kts
12-May-20 12:57 46.570851 -120.554468 288 1552ft 105kts
12-May-20 12:58 46.597427 -120.575083 18 2373ft 153kts
12-May-20 12:59 46.635172 -120.538998 36 3080ft 171kts
12-May-20 13:00 46.680238 -120.518388 2 3782ft 174kts
12-May-20 13:01 46.728610 -120.510678 4 4482ft 175kts
12-May-20 13:02 46.776851 -120.502252 5 5149ft 176kts
12-May-20 13:03 46.825414 -120.493730 4 5799ft 176kts
12-May-20 13:03 46.866130 -120.486606 4 6334ft 176kts
12-May-20 13:05 46.922825 -120.476655 4 7051ft 176kts
12-May-20 13:06 46.971363 -120.468116 4 7638ft 176kts
12-May-20 13:06 47.011472 -120.461064 3 8120ft 175kts
12-May-20 13:07 47.047046 -120.498263 292 8511ft 171kts
12-May-20 13:08 47.074831 -120.558357 303 8497ft 181kts
12-May-20 13:10 47.107746 -120.623224 303 8524ft 181kts
12-May-20 13:10 47.132875 -120.672978 303 8533ft 182kts
12-May-20 13:11 47.163854 -120.734398 303 8526ft 182kts
12-May-20 13:12 47.193921 -120.793674 303 8526ft 182kts
12-May-20 13:13 47.222384 -120.850226 302 8511ft 183kts
12-May-20 13:14 47.250482 -120.906320 302 8523ft 183kts
12-May-20 13:15 47.280186 -120.965465 302 8504ft 180kts
12-May-20 13:16 47.309312 -121.024067 303 8502ft 183kts
12-May-20 13:17 47.339069 -121.083377 303 8476ft 182kts
12-May-20 13:18 47.367062 -121.140126 302 8504ft 182kts
12-May-20 13:19 47.394675 -121.195618 302 8455ft 185kts
12-May-20 13:20 47.423816 -121.254717 302 7930ft 194kts
12-May-20 13:21 47.451489 -121.311438 301 7923ft 184kts
12-May-20 13:22 47.479090 -121.367068 302 7940ft 182kts
12-May-20 13:23 47.506231 -121.422785 302 7944ft 184kts
12-May-20 13:24 47.533563 -121.477702 301 7930ft 187kts
12-May-20 13:25 47.561573 -121.534918 302 7490ft 198kts
12-May-20 13:26 47.590262 -121.593122 301 6800ft 202kts
12-May-20 13:27 47.618110 -121.650972 302 6210ft 203kts
12-May-20 13:28 47.643724 -121.703054 300 5875ft 196kts
12-May-20 13:29 47.673461 -121.764455 301 5433ft 196kts
12-May-20 13:30 47.700220 -121.819818 301 5027ft 196kts
12-May-20 13:31 47.726654 -121.874789 301 4646ft 194kts
12-May-20 13:32 47.752243 -121.928058 301 4518ft 189kts
12-May-20 13:33 47.776745 -121.978936 301 4497ft 188kts
12-May-20 13:34 47.800816 -122.029015 301 4486ft 187kts
12-May-20 13:35 47.824369 -122.078042 301 4481ft 187kts
12-May-20 13:36 47.847868 -122.127077 301 4480ft 187kts
12-May-20 13:37 47.871798 -122.177162 301 4476ft 188kts
12-May-20 13:38 47.895405 -122.226623 301 4472ft 188kts
12-May-20 13:39 47.920039 -122.278503 300 4466ft 187kts
12-May-20 13:40 47.939807 -122.337532 292 4457ft 186kts
12-May-20 13:41 47.959324 -122.395913 292 4453ft 186kts
12-May-20 13:42 47.978594 -122.453708 292 4451ft 186kts
12-May-20 13:43 47.997788 -122.511476 292 4456ft 185kts
12-May-20 13:44 48.017429 -122.570670 293 4446ft 185kts
12-May-20 13:45 48.035732 -122.626998 292 4438ft 185kts
12-May-20 13:46 48.054152 -122.683108 293 4086ft 194kts
12-May-20 13:47 48.074267 -122.744033 293 3654ft 195kts
12-May-20 13:48 48.094573 -122.805431 293 3182ft 191kts
12-May-20 13:49 48.111389 -122.856993 293 3030ft 179kts
12-May-20 13:50 48.130693 -122.916159 293 2770ft 184kts
12-May-20 13:51 48.167725 -122.948508 5 2517ft 183kts
12-May-20 13:52 48.211039 -122.940763 0 2538ft 181kts
12-May-20 13:53 48.254783 -122.940349 1 2529ft 180kts
12-May-20 13:54 48.298340 -122.940152 359 2523ft 181kts
12-May-20 13:55 48.339868 -122.939584 0 2518ft 175kts
12-May-20 13:56 48.371836 -122.939417 1 2333ft 124kts
12-May-20 13:57 48.400048 -122.939197 359 1954ft 117kts
12-May-20 13:58 48.426572 -122.942035 351 1743ft 120kts
12-May-20 13:59 48.454350 -122.950425 349 1618ft 123kts
12-May-20 14:00 48.482176 -122.954580 6 1030ft 110kts
12-May-20 14:01 48.499718 -122.942757 107 591ft 71kts
12-May-20 14:02 48.485151 -122.937681 179 202ft 29kts
12-May-20 14:03 48.483881 -122.937085 358 190ft 22kts
12-May-20 14:04 48.486384 -122.936751 4 208ft 0kts
12-May-20 14:05 48.486384 -122.936751 4 208ft 0kts
12-May-20 14:06 48.486384 -122.936751 4 208ft 0kts

Navigation Log

Ident Type
Flight plan parsing failed, navigation log unavailable